Time;durP1;ratioP1;P1;durP2;ratioP2;P2;SDS_P1;SDS_P2;PMS_P1;PMS_P2;Temp;Humidity;BMP_temperature;BMP_pressure;BME280_temperature;BME280_humidity;BME280_pressure;Samples;Min_cycle;Max_cycle;Signal;HPM_P1;HPM_P2
2021/12/10 00:00:18;;;;;;;45.22;21.67;;;4.60;99.90;;;;;;4912165;29;20130;-80
2021/12/10 00:02:46;;;;;;;43.63;21.88;;;4.50;99.90;;;;;;4924433;29;20111;-80
2021/12/10 00:05:40;;;;;;;44.85;21.33;;;5.00;99.90;;;;;;4925472;29;20043;-79
2021/12/10 00:08:07;;;;;;;35.42;20.48;;;4.50;99.90;;;;;;4926887;29;20425;-79
2021/12/10 00:10:37;;;;;;;39.15;21.00;;;4.70;99.90;;;;;;4922167;29;20047;-79
2021/12/10 00:13:05;;;;;;;43.53;20.75;;;4.50;99.90;;;;;;4924260;29;20082;-79
2021/12/10 00:15:32;;;;;;;37.38;19.92;;;4.70;99.90;;;;;;4910182;29;20052;-80
2021/12/10 00:18:01;;;;;;;36.88;19.10;;;4.60;99.90;;;;;;4929258;29;20051;-79
2021/12/10 00:20:31;;;;;;;37.58;20.52;;;4.50;99.90;;;;;;4939865;28;20055;-79
2021/12/10 00:23:04;;;;;;;38.80;20.17;;;4.40;99.90;;;;;;4924352;29;20602;-79
2021/12/10 00:25:38;;;;;;;37.85;20.65;;;4.40;99.90;;;;;;4930477;29;20102;-80
2021/12/10 00:28:17;;;;;;;39.05;19.60;;;4.40;99.90;;;;;;4923419;29;20684;-80
2021/12/10 00:31:01;;;;;;;37.15;20.02;;;5.50;99.90;;;;;;4908325;29;20050;-80
2021/12/10 00:33:28;;;;;;;35.88;19.58;;;4.90;99.90;;;;;;4924751;29;20082;-80
2021/12/10 00:35:54;;;;;;;34.72;19.52;;;4.40;99.90;;;;;;4913859;29;20083;-81
2021/12/10 00:38:22;;;;;;;38.40;20.08;;;4.40;99.90;;;;;;4923384;29;20473;-81
2021/12/10 00:40:48;;;;;;;33.50;17.05;;;4.40;99.90;;;;;;4924000;29;20082;-80
2021/12/10 00:43:14;;;;;;;32.45;18.83;;;4.40;99.90;;;;;;4913480;29;20062;-80
2021/12/10 00:45:40;;;;;;;34.35;18.08;;;4.30;99.90;;;;;;4925094;29;20540;-81
2021/12/10 00:48:06;;;;;;;32.22;18.33;;;4.30;99.90;;;;;;4908393;29;20042;-81
2021/12/10 00:50:41;;;;;;;33.95;18.98;;;4.30;99.90;;;;;;4924564;28;20064;-80
2021/12/10 00:53:07;;;;;;;34.88;19.83;;;4.70;99.90;;;;;;4908076;28;20926;-80
2021/12/10 00:55:33;;;;;;;35.60;18.80;;;4.30;99.90;;;;;;4926254;29;20126;-80
2021/12/10 00:58:00;;;;;;;32.15;18.77;;;4.30;99.90;;;;;;4905417;29;20303;-80
2021/12/10 01:00:30;;;;;;;37.08;17.45;;;4.30;99.90;;;;;;4923697;29;20051;-80
2021/12/10 01:02:56;;;;;;;30.85;17.92;;;4.30;99.90;;;;;;4923776;29;20433;-80
2021/12/10 01:05:23;;;;;;;35.67;19.00;;;4.60;99.90;;;;;;4924280;29;20051;-80
2021/12/10 01:07:49;;;;;;;32.10;18.45;;;4.30;99.90;;;;;;4929206;29;20054;-81
2021/12/10 01:10:29;;;;;;;45.00;20.42;;;4.40;99.90;;;;;;4926388;29;20054;-81
2021/12/10 01:12:58;;;;;;;39.92;20.00;;;4.30;99.90;;;;;;4930246;29;20062;-80
2021/12/10 01:23:57;;;;;;;32.00;18.33;;;4.40;99.90;;;;;;4924188;29;20063;-81
2021/12/10 01:26:56;;;;;;;31.60;17.47;;;4.30;99.90;;;;;;4909792;29;20118;-80
2021/12/10 01:29:32;;;;;;;34.95;18.88;;;4.40;99.90;;;;;;4906808;29;20053;-81
2021/12/10 01:32:01;;;;;;;31.75;16.33;;;5.50;99.90;;;;;;4927958;29;20043;-80
2021/12/10 01:34:28;;;;;;;32.58;18.05;;;4.50;99.90;;;;;;4929787;29;20039;-81
2021/12/10 01:36:54;;;;;;;38.90;18.15;;;4.40;99.90;;;;;;4904815;29;20516;-81
2021/12/10 01:39:26;;;;;;;29.10;16.65;;;4.40;99.90;;;;;;4922054;29;20044;-80
2021/12/10 01:42:01;;;;;;;31.80;16.35;;;4.40;99.90;;;;;;4911812;29;20051;-80
2021/12/10 01:44:32;;;;;;;32.85;17.08;;;4.60;99.90;;;;;;4920543;29;20054;-80
2021/12/10 01:47:05;;;;;;;31.73;17.50;;;4.50;99.90;;;;;;4923143;29;20047;-80
2021/12/10 01:49:31;;;;;;;28.65;17.15;;;4.30;99.90;;;;;;4923437;29;20580;-80
2021/12/10 01:51:58;;;;;;;30.45;16.55;;;4.30;99.90;;;;;;4910842;29;20043;-81
2021/12/10 01:54:29;;;;;;;26.85;14.55;;;5.30;99.90;;;;;;4925613;29;20051;-81
2021/12/10 01:56:59;;;;;;;23.80;14.48;;;4.40;99.90;;;;;;4923622;29;20055;-81
2021/12/10 01:59:30;;;;;;;24.20;14.13;;;4.30;99.90;;;;;;4912717;29;20386;-80
2021/12/10 02:02:00;;;;;;;24.33;13.13;;;4.80;99.90;;;;;;4919113;29;20054;-80
2021/12/10 02:04:29;;;;;;;21.10;13.05;;;5.10;99.90;;;;;;4922339;29;20175;-81
2021/12/10 02:06:56;;;;;;;19.98;12.38;;;4.30;99.90;;;;;;4906453;29;20051;-81
2021/12/10 02:09:22;;;;;;;21.98;13.63;;;4.40;99.90;;;;;;4911103;29;20138;-80
2021/12/10 02:11:49;;;;;;;28.42;12.45;;;4.30;99.90;;;;;;4923487;29;20047;-80
2021/12/10 02:14:15;;;;;;;21.33;12.57;;;4.30;99.90;;;;;;4907741;29;20054;-81
2021/12/10 02:16:43;;;;;;;20.77;12.90;;;4.30;99.90;;;;;;4924239;29;20110;-81
2021/12/10 02:19:13;;;;;;;21.92;13.38;;;4.30;99.90;;;;;;4927357;29;20438;-81
2021/12/10 02:21:40;;;;;;;21.65;13.32;;;4.30;99.90;;;;;;4909912;29;20054;-79
2021/12/10 02:24:09;;;;;;;21.30;11.88;;;4.20;99.90;;;;;;4924108;29;20051;-79
2021/12/10 02:26:39;;;;;;;18.10;12.73;;;4.20;99.90;;;;;;4928548;28;20396;-78
2021/12/10 02:29:07;;;;;;;21.08;12.40;;;4.20;99.90;;;;;;4925854;29;20103;-79
2021/12/10 02:31:33;;;;;;;22.63;14.35;;;4.10;99.90;;;;;;4915463;29;20051;-79
2021/12/10 02:34:01;;;;;;;21.70;12.77;;;4.10;99.90;;;;;;4926323;29;20051;-79
2021/12/10 02:36:27;;;;;;;20.38;12.85;;;4.20;99.90;;;;;;4897290;29;20117;-78
2021/12/10 02:38:54;;;;;;;21.42;13.70;;;5.10;99.90;;;;;;4932140;29;20078;-80
2021/12/10 02:41:25;;;;;;;26.00;13.05;;;4.00;99.90;;;;;;4930675;29;20071;-80
2021/12/10 02:43:51;;;;;;;22.20;13.18;;;4.00;99.90;;;;;;4931534;29;20135;-81
2021/12/10 02:46:17;;;;;;;23.48;13.20;;;5.20;99.90;;;;;;4913508;29;20039;-80
2021/12/10 02:48:43;;;;;;;22.73;14.75;;;4.00;99.90;;;;;;4926135;29;20363;-80
2021/12/10 02:51:10;;;;;;;26.58;13.65;;;4.90;99.90;;;;;;4926787;29;20051;-80
2021/12/10 02:53:41;;;;;;;23.17;13.82;;;4.00;99.90;;;;;;4931959;29;20054;-81
2021/12/10 02:56:08;;;;;;;25.30;14.52;;;4.00;99.90;;;;;;4900251;29;20044;-81
2021/12/10 02:58:34;;;;;;;23.15;13.07;;;3.90;99.90;;;;;;4915337;29;20044;-80
2021/12/10 03:01:20;;;;;;;23.70;13.65;;;3.90;99.90;;;;;;4909616;29;20055;-81
2021/12/10 03:03:46;;;;;;;24.00;13.70;;;3.90;99.90;;;;;;4925458;29;20070;-80
2021/12/10 03:06:14;;;;;;;22.75;13.43;;;3.90;99.90;;;;;;4916912;29;20051;-80
2021/12/10 03:08:43;;;;;;;22.35;13.40;;;4.30;99.90;;;;;;4924737;29;20111;-81
2021/12/10 03:11:12;;;;;;;18.27;13.63;;;3.90;99.90;;;;;;4915153;29;20478;-80
2021/12/10 03:13:38;;;;;;;22.13;13.35;;;4.80;99.90;;;;;;4925196;29;20505;-80
2021/12/10 03:16:06;;;;;;;23.02;12.07;;;4.60;99.90;;;;;;4906041;29;20142;-81
2021/12/10 03:18:33;;;;;;;27.52;14.63;;;3.90;99.90;;;;;;4927155;29;20043;-81
2021/12/10 03:21:00;;;;;;;20.75;13.13;;;4.40;99.90;;;;;;4940793;28;20545;-81
2021/12/10 03:23:25;;;;;;;21.92;12.38;;;3.80;99.90;;;;;;4926620;29;20045;-81
2021/12/10 03:25:51;;;;;;;18.20;12.10;;;3.80;99.90;;;;;;4913828;29;20405;-78
2021/12/10 03:28:17;;;;;;;21.45;12.07;;;3.80;99.90;;;;;;4925241;29;20054;-79
2021/12/10 03:30:50;;;;;;;21.70;11.98;;;4.00;99.90;;;;;;4908343;29;20066;-78
2021/12/10 03:33:17;;;;;;;20.55;11.30;;;3.70;99.90;;;;;;4925867;29;20043;-79
2021/12/10 03:35:46;;;;;;;21.98;12.20;;;3.70;99.90;;;;;;4931255;29;20062;-79
2021/12/10 03:38:16;;;;;;;20.50;11.50;;;3.60;99.90;;;;;;4928364;28;20050;-79
2021/12/10 03:40:42;;;;;;;20.02;11.73;;;4.50;99.90;;;;;;4909652;29;20597;-81
2021/12/10 03:43:08;;;;;;;18.13;11.60;;;3.80;99.90;;;;;;4926034;29;20055;-80
2021/12/10 03:45:41;;;;;;;17.42;11.65;;;3.50;99.90;;;;;;4922800;29;20035;-79
2021/12/10 03:48:10;;;;;;;26.45;12.50;;;3.50;99.90;;;;;;4926472;29;20146;-79
2021/12/10 03:50:37;;;;;;;19.45;12.27;;;4.40;99.90;;;;;;4924425;29;20202;-80
2021/12/10 03:53:03;;;;;;;22.52;12.75;;;3.50;99.90;;;;;;4929724;29;20090;-80
2021/12/10 03:55:29;;;;;;;16.02;10.85;;;3.70;99.90;;;;;;4909164;29;20086;-79
2021/12/10 03:57:57;;;;;;;18.95;11.23;;;3.60;99.90;;;;;;4925134;29;20062;-80
2021/12/10 04:00:27;;;;;;;15.25;11.43;;;4.20;99.90;;;;;;4924149;29;20063;-81
2021/12/10 04:02:54;;;;;;;20.02;11.30;;;3.30;99.90;;;;;;4924741;29;20094;-79
2021/12/10 04:05:20;;;;;;;20.67;10.70;;;3.30;99.90;;;;;;4919765;29;20165;-80
2021/12/10 04:07:46;;;;;;;21.27;11.98;;;3.90;99.90;;;;;;4924847;29;20816;-80
2021/12/10 04:10:15;;;;;;;20.38;11.73;;;3.30;99.90;;;;;;4923557;29;20051;-80
2021/12/10 04:12:41;;;;;;;21.67;11.60;;;3.20;99.90;;;;;;4924624;29;20103;-80
2021/12/10 04:15:08;;;;;;;18.15;11.70;;;4.50;99.90;;;;;;4924566;29;20524;-80
2021/12/10 04:17:35;;;;;;;19.08;10.68;;;3.20;99.90;;;;;;4908381;29;20054;-79
2021/12/10 04:20:02;;;;;;;19.67;11.48;;;3.10;99.90;;;;;;4923990;29;20056;-81
2021/12/10 04:22:32;;;;;;;19.30;11.20;;;3.10;99.90;;;;;;4924075;29;20496;-80
2021/12/10 04:24:59;;;;;;;17.30;10.98;;;3.60;99.90;;;;;;4929763;29;20105;-79
2021/12/10 04:27:26;;;;;;;18.13;10.02;;;3.00;99.90;;;;;;4940330;28;20043;-80
2021/12/10 04:29:55;;;;;;;25.67;11.48;;;3.90;99.90;;;;;;4908390;29;20109;-79
2021/12/10 04:32:23;;;;;;;21.02;11.65;;;2.90;99.90;;;;;;4924925;29;20062;-80
2021/12/10 04:34:50;;;;;;;18.33;11.88;;;3.60;99.90;;;;;;4914326;29;20051;-80
2021/12/10 04:37:16;;;;;;;21.58;11.55;;;3.80;99.90;;;;;;4925237;29;20047;-79
2021/12/10 04:39:46;;;;;;;18.48;10.98;;;2.80;99.90;;;;;;4929074;29;20564;-80
2021/12/10 04:42:13;;;;;;;20.48;11.73;;;2.70;99.90;;;;;;4929669;29;20430;-80
2021/12/10 04:44:39;;;;;;;21.15;11.57;;;3.10;99.90;;;;;;4898900;29;20047;-79
2021/12/10 04:47:05;;;;;;;21.33;12.05;;;3.80;99.90;;;;;;4923562;29;20156;-79
2021/12/10 04:49:31;;;;;;;19.88;12.70;;;2.60;99.90;;;;;;4925353;28;20057;-79
2021/12/10 04:51:58;;;;;;;22.80;13.20;;;2.60;99.90;;;;;;4923625;29;20063;-79
2021/12/10 04:54:25;;;;;;;19.27;11.80;;;2.50;99.90;;;;;;4907381;29;20047;-79
2021/12/10 04:56:54;;;;;;;19.30;11.45;;;3.90;99.90;;;;;;4930141;29;20158;-79
2021/12/10 04:59:22;;;;;;;21.02;12.05;;;3.20;99.90;;;;;;4928757;29;20059;-79
2021/12/10 05:01:50;;;;;;;19.92;11.80;;;3.00;99.90;;;;;;4937503;28;20126;-79
2021/12/10 05:04:16;;;;;;;18.13;11.82;;;2.80;99.90;;;;;;4927996;29;20137;-80
2021/12/10 05:06:42;;;;;;;21.52;12.00;;;2.40;99.90;;;;;;4925313;29;20068;-80
2021/12/10 05:09:11;;;;;;;15.93;11.77;;;2.30;99.90;;;;;;4924661;29;20184;-79
2021/12/10 05:11:37;;;;;;;19.98;11.18;;;2.50;99.90;;;;;;4927872;29;20043;-79
2021/12/10 05:14:05;;;;;;;20.00;11.50;;;2.60;99.90;;;;;;4909580;29;20054;-79
2021/12/10 05:16:32;;;;;;;19.65;12.18;;;2.30;99.90;;;;;;4908441;29;20489;-79
2021/12/10 05:19:00;;;;;;;18.77;11.35;;;3.30;99.90;;;;;;4923837;29;20047;-80
2021/12/10 05:21:29;;;;;;;20.23;12.07;;;2.30;99.90;;;;;;4922563;29;20188;-79
2021/12/10 05:23:56;;;;;;;21.98;12.30;;;2.50;99.90;;;;;;4911011;29;20410;-79
2021/12/10 05:26:22;;;;;;;20.42;12.25;;;2.30;99.90;;;;;;4923552;29;20052;-80
2021/12/10 05:28:48;;;;;;;21.95;12.27;;;2.30;99.90;;;;;;4924927;29;20047;-79
2021/12/10 05:31:13;;;;;;;21.27;12.10;;;2.30;99.90;;;;;;4924074;29;20480;-79
2021/12/10 05:33:39;;;;;;;19.77;11.75;;;2.30;99.90;;;;;;4910128;29;20059;-78
2021/12/10 05:36:07;;;;;;;17.65;12.27;;;3.30;99.90;;;;;;4914645;29;20115;-79
2021/12/10 05:38:34;;;;;;;20.58;11.13;;;2.30;99.90;;;;;;4940524;28;20063;-78
2021/12/10 05:41:05;;;;;;;19.90;10.80;;;2.50;99.90;;;;;;4923427;29;20047;-79
2021/12/10 05:43:32;;;;;;;18.05;11.32;;;2.40;99.90;;;;;;4921355;29;20051;-78
2021/12/10 05:45:57;;;;;;;18.58;11.20;;;2.50;99.90;;;;;;4921900;29;20146;-78
2021/12/10 05:48:23;;;;;;;18.13;11.23;;;2.90;99.90;;;;;;4887066;29;20551;-79
2021/12/10 05:50:50;;;;;;;17.25;10.23;;;3.00;99.90;;;;;;4922002;29;20079;-79
2021/12/10 05:53:16;;;;;;;20.92;11.07;;;2.30;99.90;;;;;;4911513;29;20059;-79
2021/12/10 05:55:42;;;;;;;18.98;10.38;;;2.60;99.90;;;;;;4911242;29;20044;-79
2021/12/10 05:58:08;;;;;;;18.83;11.40;;;3.10;99.90;;;;;;4909065;29;20044;-80
2021/12/10 06:00:42;;;;;;;16.02;9.75;;;3.40;99.90;;;;;;4910984;28;20047;-79
2021/12/10 06:03:08;;;;;;;20.05;9.88;;;2.30;99.90;;;;;;4926833;28;20409;-80
2021/12/10 06:05:34;;;;;;;17.15;10.38;;;2.40;99.90;;;;;;4925437;29;20983;-79
2021/12/10 06:08:02;;;;;;;19.52;9.73;;;3.70;99.90;;;;;;4927326;29;20055;-79
2021/12/10 06:10:28;;;;;;;16.48;10.10;;;2.40;99.90;;;;;;4926133;29;20065;-79
2021/12/10 06:12:54;;;;;;;17.42;10.00;;;2.40;99.90;;;;;;4926550;29;20113;-79
2021/12/10 06:15:23;;;;;;;17.33;9.23;;;2.50;99.90;;;;;;4923598;29;20055;-79
2021/12/10 06:17:49;;;;;;;22.45;10.60;;;2.50;99.90;;;;;;4917226;29;20110;-78
2021/12/10 06:20:25;;;;;;;17.15;9.77;;;3.50;99.90;;;;;;4929401;29;20498;-78
2021/12/10 06:22:51;;;;;;;17.63;10.98;;;2.50;99.90;;;;;;4928621;29;20057;-78
2021/12/10 06:25:17;;;;;;;18.02;9.85;;;3.80;99.90;;;;;;4926678;28;20051;-79
2021/12/10 06:27:46;;;;;;;15.27;9.18;;;3.90;99.90;;;;;;4928054;29;20113;-79
2021/12/10 06:30:24;;;;;;;14.18;8.98;;;2.60;99.90;;;;;;4926895;29;20047;-81
2021/12/10 06:32:52;;;;;;;13.43;9.52;;;4.20;99.90;;;;;;4926780;29;20575;-81
2021/12/10 06:35:18;;;;;;;16.67;8.85;;;3.60;99.90;;;;;;4928707;29;20055;-81
2021/12/10 06:37:45;;;;;;;19.23;10.38;;;2.60;99.90;;;;;;4928309;29;20055;-80
2021/12/10 06:40:15;;;;;;;16.67;9.85;;;2.60;99.90;;;;;;4925548;29;20055;-81
2021/12/10 06:42:41;;;;;;;16.67;9.93;;;2.70;99.90;;;;;;4926638;29;20061;-80
2021/12/10 06:45:12;;;;;;;17.23;9.90;;;2.90;99.90;;;;;;4927234;29;20485;-80
2021/12/10 06:47:38;;;;;;;17.10;9.70;;;2.60;99.90;;;;;;4927068;29;20077;-79
2021/12/10 06:50:07;;;;;;;12.23;8.57;;;2.60;99.90;;;;;;4928357;29;20118;-80
2021/12/10 06:52:32;;;;;;;15.55;10.18;;;2.70;99.90;;;;;;4931898;28;20098;-80
2021/12/10 06:54:58;;;;;;;18.73;10.73;;;2.70;99.90;;;;;;4926816;29;20048;-79
2021/12/10 06:57:24;;;;;;;16.70;10.82;;;3.20;99.90;;;;;;4926723;28;20126;-79
2021/12/10 06:59:50;;;;;;;20.70;10.15;;;3.20;99.90;;;;;;4928841;29;20055;-80
2021/12/10 07:02:16;;;;;;;17.75;10.25;;;4.10;99.90;;;;;;4913394;28;20183;-80
2021/12/10 07:04:42;;;;;;;19.13;10.18;;;2.70;99.90;;;;;;4927510;29;20059;-80
2021/12/10 07:07:12;;;;;;;17.98;11.32;;;2.70;99.90;;;;;;4909790;29;20074;-80
2021/12/10 07:09:38;;;;;;;19.30;10.75;;;2.70;99.90;;;;;;4922615;29;20046;-79
2021/12/10 07:12:07;;;;;;;20.15;11.43;;;2.80;99.90;;;;;;4924846;29;20050;-80
2021/12/10 07:14:34;;;;;;;16.88;10.55;;;2.80;99.90;;;;;;4924679;29;20097;-80
2021/12/10 07:17:01;;;;;;;15.73;9.85;;;2.80;99.90;;;;;;4926175;29;21054;-79
2021/12/10 07:19:28;;;;;;;20.60;10.18;;;2.80;99.90;;;;;;4929916;29;20048;-81
2021/12/10 07:21:55;;;;;;;14.10;9.30;;;2.80;99.90;;;;;;4924241;29;20043;-80
2021/12/10 07:24:21;;;;;;;14.65;9.55;;;3.00;99.90;;;;;;4925281;29;20126;-80
2021/12/10 07:26:48;;;;;;;13.63;9.02;;;2.80;99.90;;;;;;4927422;29;20059;-78
2021/12/10 07:29:14;;;;;;;18.27;9.95;;;3.50;99.90;;;;;;4909048;29;20133;-80
2021/12/10 07:31:42;;;;;;;14.70;9.27;;;3.40;99.90;;;;;;4909413;29;20050;-78
2021/12/10 07:34:08;;;;;;;16.67;10.18;;;2.90;99.90;;;;;;4939086;29;20051;-78
2021/12/10 07:36:35;;;;;;;11.73;8.57;;;3.60;99.90;;;;;;4942740;28;20058;-78
2021/12/10 07:39:03;;;;;;;16.40;9.60;;;2.50;99.90;;;;;;4931697;29;20135;-79
2021/12/10 07:41:29;;;;;;;17.08;8.95;;;2.90;99.90;;;;;;4919966;29;21392;-80
2021/12/10 07:43:55;;;;;;;13.52;8.57;;;2.90;99.90;;;;;;4923945;29;20051;-79
2021/12/10 07:46:24;;;;;;;12.70;7.75;;;2.90;99.90;;;;;;4927783;29;20059;-79
2021/12/10 07:48:50;;;;;;;14.10;8.05;;;3.90;99.90;;;;;;4925800;29;20058;-78
2021/12/10 07:51:21;;;;;;;12.23;7.85;;;4.10;99.90;;;;;;4893498;29;20043;-79
2021/12/10 07:53:48;;;;;;;12.95;7.57;;;3.10;99.90;;;;;;4926435;28;20194;-81
2021/12/10 07:56:15;;;;;;;11.98;6.88;;;3.20;99.90;;;;;;4916636;29;20054;-81
2021/12/10 07:58:42;;;;;;;12.30;7.50;;;3.30;99.90;;;;;;4901958;29;20054;-80
2021/12/10 08:01:24;;;;;;;11.80;7.25;;;4.10;99.90;;;;;;4930397;29;20047;-80
2021/12/10 08:03:51;;;;;;;9.52;6.68;;;3.00;99.90;;;;;;4932109;29;20090;-81
2021/12/10 08:06:18;;;;;;;12.07;7.65;;;3.00;99.90;;;;;;4930705;29;20367;-81
2021/12/10 08:08:44;;;;;;;10.10;7.10;;;2.90;99.90;;;;;;4928767;29;20082;-80
2021/12/10 08:11:11;;;;;;;12.20;8.05;;;3.00;99.90;;;;;;4929160;29;20187;-81
2021/12/10 08:13:37;;;;;;;11.52;7.55;;;3.80;99.90;;;;;;4923281;29;20057;-80
2021/12/10 08:16:03;;;;;;;12.15;6.88;;;3.00;99.90;;;;;;4932076;29;20496;-80
2021/12/10 08:18:29;;;;;;;11.05;6.65;;;3.00;99.90;;;;;;4942326;29;20043;-81
2021/12/10 08:20:56;;;;;;;11.98;7.35;;;4.00;99.90;;;;;;4911298;29;20737;-80
2021/12/10 08:23:22;;;;;;;12.82;7.18;;;3.00;99.90;;;;;;4913047;29;20056;-80
2021/12/10 08:25:48;;;;;;;11.55;7.65;;;3.00;99.90;;;;;;4929699;29;20099;-80
2021/12/10 08:28:14;;;;;;;11.32;7.10;;;3.00;99.90;;;;;;4933475;29;20051;-80
2021/12/10 08:30:41;;;;;;;13.82;7.75;;;3.00;99.90;;;;;;4911915;29;22511;-81
2021/12/10 08:33:14;;;;;;;12.73;7.25;;;3.40;99.90;;;;;;4942026;28;20055;-80
2021/12/10 08:35:55;;;;;;;14.45;8.07;;;3.00;99.90;;;;;;4926705;29;20058;-77
2021/12/10 08:38:21;;;;;;;9.90;7.10;;;3.00;99.90;;;;;;4925144;29;20097;-79
2021/12/10 08:40:57;;;;;;;9.45;6.85;;;3.00;99.90;;;;;;4930536;29;20475;-78
2021/12/10 08:43:23;;;;;;;13.38;7.35;;;3.40;99.90;;;;;;4924917;29;20629;-78
2021/12/10 08:45:52;;;;;;;10.45;7.35;;;2.90;99.90;;;;;;4908622;29;20078;-78
2021/12/10 08:48:19;;;;;;;14.73;7.03;;;3.00;99.90;;;;;;4925077;29;20090;-79
2021/12/10 08:50:48;;;;;;;10.57;7.03;;;2.30;99.90;;;;;;4899593;29;20170;-78
2021/12/10 08:53:14;;;;;;;12.13;7.20;;;3.00;99.90;;;;;;4909248;29;20058;-78
2021/12/10 08:55:46;;;;;;;12.20;7.05;;;3.00;99.90;;;;;;4925456;29;20079;-78
2021/12/10 08:58:13;;;;;;;12.25;6.90;;;3.00;99.90;;;;;;4910106;29;20078;-78
2021/12/10 09:00:48;;;;;;;12.18;6.70;;;3.00;99.90;;;;;;4910218;29;20051;-78
2021/12/10 09:03:15;;;;;;;11.43;6.60;;;4.20;99.90;;;;;;4923209;29;20417;-78
2021/12/10 09:05:41;;;;;;;9.48;6.30;;;3.30;99.90;;;;;;4929455;29;20135;-79
2021/12/10 09:08:06;;;;;;;11.68;6.72;;;3.00;99.90;;;;;;4924095;29;20517;-78
2021/12/10 09:10:39;;;;;;;12.57;6.40;;;3.80;99.90;;;;;;4921852;28;20051;-78
2021/12/10 09:13:12;;;;;;;10.35;6.53;;;3.80;99.90;;;;;;4923803;29;20473;-78
2021/12/10 09:15:40;;;;;;;10.32;6.00;;;3.60;99.90;;;;;;4912902;29;20592;-78
2021/12/10 09:18:08;;;;;;;13.82;6.03;;;3.10;99.90;;;;;;4924716;29;20777;-78
2021/12/10 09:20:38;;;;;;;10.73;5.90;;;3.10;99.90;;;;;;4928896;29;20133;-78
2021/12/10 09:23:06;;;;;;;9.27;5.30;;;3.20;99.90;;;;;;4925009;29;20047;-78
2021/12/10 09:25:31;;;;;;;10.15;5.38;;;3.30;99.90;;;;;;4929239;29;20122;-78
2021/12/10 09:27:57;;;;;;;8.10;5.53;;;4.70;99.90;;;;;;4913943;29;20186;-78
2021/12/10 09:30:25;;;;;;;10.55;5.75;;;4.10;99.90;;;;;;4920370;29;20051;-79
2021/12/10 09:32:51;;;;;;;11.00;5.78;;;3.30;99.90;;;;;;4929866;29;20052;-78
2021/12/10 09:35:20;;;;;;;9.40;5.20;;;4.00;99.90;;;;;;4925067;29;20051;-78
2021/12/10 09:37:47;;;;;;;11.25;5.93;;;3.30;99.90;;;;;;4927666;29;20066;-80
2021/12/10 09:40:19;;;;;;;7.40;4.88;;;3.90;99.90;;;;;;4928923;29;20154;-79
2021/12/10 09:42:46;;;;;;;9.77;5.07;;;3.40;99.90;;;;;;4929944;29;20058;-79
2021/12/10 09:45:15;;;;;;;8.20;5.55;;;3.40;99.90;;;;;;4926972;29;20059;-78
2021/12/10 09:47:42;;;;;;;11.00;5.30;;;4.80;99.90;;;;;;4928896;29;20134;-78
2021/12/10 09:50:10;;;;;;;7.88;5.32;;;3.40;99.90;;;;;;4933839;29;20505;-78
2021/12/10 09:52:37;;;;;;;8.75;5.50;;;3.50;99.90;;;;;;4910402;29;20055;-78
2021/12/10 09:55:05;;;;;;;10.07;5.93;;;4.50;99.90;;;;;;4934144;29;20058;-78
2021/12/10 09:57:33;;;;;;;9.45;4.90;;;3.70;99.90;;;;;;4911607;29;20115;-79
2021/12/10 10:00:04;;;;;;;9.77;5.38;;;4.10;99.90;;;;;;4933221;29;20493;-79
2021/12/10 10:02:32;;;;;;;11.95;5.50;;;4.40;99.90;;;;;;4926737;29;20049;-78
2021/12/10 10:04:58;;;;;;;9.00;5.18;;;3.90;99.90;;;;;;4927237;29;20055;-79
2021/12/10 10:07:29;;;;;;;9.45;5.28;;;4.20;99.90;;;;;;4927340;29;20099;-79
2021/12/10 10:10:05;;;;;;;7.88;5.07;;;3.90;99.90;;;;;;4927452;29;20051;-79
2021/12/10 10:12:32;;;;;;;;;;;4.40;99.90;;;;;;4922838;29;20061;-79
2021/12/10 10:15:00;;;;;;;8.90;4.88;;;3.80;99.90;;;;;;4928229;29;20471;-78
2021/12/10 10:17:26;;;;;;;9.35;5.47;;;3.80;99.90;;;;;;4926857;29;20047;-79
2021/12/10 10:19:52;;;;;;;8.75;5.32;;;5.00;99.90;;;;;;4927125;29;20122;-79
2021/12/10 10:22:25;;;;;;;9.43;5.18;;;3.90;99.90;;;;;;4914273;29;20043;-79
2021/12/10 10:24:52;;;;;;;10.85;5.10;;;4.10;99.90;;;;;;4926316;29;20584;-79
2021/12/10 10:27:23;;;;;;;7.55;4.88;;;4.20;99.90;;;;;;4929390;29;20043;-78
2021/12/10 10:29:57;;;;;;;10.90;5.13;;;4.10;99.90;;;;;;4926515;29;20057;-78
2021/12/10 10:32:28;;;;;;;8.63;5.10;;;4.90;99.90;;;;;;4928245;29;20512;-78
2021/12/10 10:34:57;;;;;;;7.05;4.65;;;4.40;99.90;;;;;;4940776;29;20151;-78
2021/12/10 10:37:24;;;;;;;7.57;4.72;;;4.80;99.90;;;;;;4911132;29;20494;-78
2021/12/10 10:39:51;;;;;;;8.20;5.18;;;4.70;99.90;;;;;;4927451;29;20047;-78
2021/12/10 10:42:24;;;;;;;10.60;4.82;;;5.00;99.90;;;;;;4924841;29;20556;-78
2021/12/10 10:44:50;;;;;;;7.15;4.10;;;5.50;99.90;;;;;;4928252;29;20058;-78
2021/12/10 10:47:16;;;;;;;8.35;4.32;;;6.70;99.90;;;;;;4932778;29;20681;-78
2021/12/10 10:49:44;;;;;;;12.07;4.82;;;5.70;99.90;;;;;;4924714;29;20047;-78
2021/12/10 10:52:18;;;;;;;8.57;4.55;;;5.60;99.90;;;;;;4909921;29;20564;-79
2021/12/10 10:54:46;;;;;;;7.15;4.00;;;5.50;99.90;;;;;;4942605;29;20055;-78
2021/12/10 10:57:24;;;;;;;11.30;4.28;;;6.80;99.90;;;;;;4926517;29;20496;-79
2021/12/10 10:59:57;;;;;;;8.35;4.35;;;5.30;99.90;;;;;;4910719;29;20051;-78
2021/12/10 11:02:26;;;;;;;8.27;4.40;;;5.10;99.90;;;;;;4927545;29;20046;-78
2021/12/10 11:04:52;;;;;;;8.93;4.35;;;5.30;99.90;;;;;;4926737;29;20059;-78
2021/12/10 11:07:26;;;;;;;6.72;4.20;;;5.00;99.90;;;;;;4927756;29;20040;-78
2021/12/10 11:09:59;;;;;;;8.02;4.13;;;5.30;99.90;;;;;;4911617;29;20051;-78
2021/12/10 11:12:31;;;;;;;8.25;4.03;;;5.20;99.90;;;;;;4916484;29;20043;-78
2021/12/10 11:14:59;;;;;;;6.18;3.63;;;5.90;99.90;;;;;;4925653;29;20048;-78
2021/12/10 11:17:34;;;;;;;7.80;4.38;;;5.00;99.90;;;;;;4931971;29;20065;-78
2021/12/10 11:20:13;;;;;;;8.90;4.20;;;4.90;99.90;;;;;;4930658;29;20047;-79
2021/12/10 11:22:52;;;;;;;10.30;3.95;;;5.50;99.90;;;;;;4929849;29;20205;-78
2021/12/10 11:25:34;;;;;;;7.60;3.70;;;4.80;99.90;;;;;;4931396;29;20066;-77
2021/12/10 11:28:14;;;;;;;13.48;4.53;;;4.80;99.90;;;;;;4912659;29;20437;-78
2021/12/10 11:30:43;;;;;;;8.23;4.20;;;4.70;99.90;;;;;;4910574;29;20901;-78
2021/12/10 11:33:15;;;;;;;7.68;4.43;;;4.60;99.90;;;;;;4910617;29;20494;-79
2021/12/10 11:35:47;;;;;;;5.93;3.75;;;4.60;99.90;;;;;;4910430;29;20063;-79
2021/12/10 11:38:29;;;;;;;5.85;3.70;;;4.60;99.90;;;;;;4925395;29;20051;-79
2021/12/10 11:41:00;;;;;;;7.80;4.07;;;4.60;99.90;;;;;;4925436;29;20078;-80
2021/12/10 11:43:44;;;;;;;7.25;4.03;;;4.50;99.90;;;;;;4941580;28;20055;-79
2021/12/10 11:48:54;;;;;;;7.43;4.40;;;4.50;99.90;;;;;;4931421;29;20062;-80
2021/12/10 11:51:29;;;;;;;7.18;4.40;;;4.60;99.90;;;;;;4909125;29;20087;-80
2021/12/10 11:53:59;;;;;;;9.83;4.90;;;4.60;99.90;;;;;;4931352;29;20050;-80
2021/12/10 11:56:35;;;;;;;7.97;3.90;;;4.50;99.90;;;;;;4925814;28;20044;-80
2021/12/10 11:59:10;;;;;;;7.53;4.00;;;4.60;99.90;;;;;;4926295;28;20444;-80
2021/12/10 12:01:59;;;;;;;8.00;3.92;;;4.60;99.90;;;;;;4926384;29;20129;-81
2021/12/10 12:04:39;;;;;;;8.30;4.22;;;4.60;99.90;;;;;;4920934;29;20136;-81
2021/12/10 12:07:26;;;;;;;9.40;4.53;;;4.60;99.90;;;;;;4915184;29;20039;-81
2021/12/10 12:09:59;;;;;;;6.95;4.07;;;4.60;99.90;;;;;;4939876;29;20162;-80
2021/12/10 12:12:29;;;;;;;9.80;4.47;;;4.70;99.90;;;;;;4928489;28;20519;-80
2021/12/10 12:15:17;;;;;;;7.60;4.10;;;5.00;99.90;;;;;;4917012;29;20051;-77
2021/12/10 12:17:47;;;;;;;6.40;4.00;;;5.50;99.90;;;;;;4926931;29;20051;-78
2021/12/10 12:20:35;;;;;;;6.40;3.88;;;4.80;99.90;;;;;;4940918;28;20040;-78
2021/12/10 12:26:03;;;;;;;7.95;4.38;;;4.80;99.90;;;;;;4926838;29;20130;-77
2021/12/10 12:28:30;;;;;;;12.10;4.65;;;4.70;99.90;;;;;;4931440;29;20182;-77
2021/12/10 12:31:08;;;;;;;5.93;4.07;;;5.80;99.90;;;;;;4929449;29;20074;-78
2021/12/10 12:33:57;;;;;;;7.03;3.78;;;4.70;99.90;;;;;;4924698;29;20485;-78
2021/12/10 12:36:55;;;;;;;8.15;3.90;;;4.70;99.90;;;;;;4926518;29;20062;-77
2021/12/10 12:39:41;;;;;;;6.55;3.75;;;4.70;99.90;;;;;;4920047;29;20428;-78
2021/12/10 12:42:19;;;;;;;7.93;4.18;;;4.70;99.90;;;;;;4925387;28;20050;-77
2021/12/10 12:45:23;;;;;;;8.60;4.10;;;4.60;99.90;;;;;;4926355;29;20122;-78
2021/12/10 12:47:54;;;;;;;10.95;3.97;;;4.60;99.90;;;;;;4875737;29;20411;-78
2021/12/10 12:50:23;;;;;;;6.70;4.10;;;4.60;99.90;;;;;;4926836;29;20059;-78
2021/12/10 12:52:50;;;;;;;5.63;4.13;;;4.80;99.90;;;;;;4930142;29;20050;-79
2021/12/10 12:55:52;;;;;;;6.70;3.60;;;4.60;99.90;;;;;;4923547;28;20162;-78
2021/12/10 12:58:37;;;;;;;8.88;4.07;;;4.60;99.90;;;;;;4929567;29;20051;-77
2021/12/10 13:01:22;;;;;;;6.22;4.07;;;4.60;99.90;;;;;;4925580;29;20102;-77
2021/12/10 13:03:58;;;;;;;8.45;4.03;;;4.60;99.90;;;;;;4921565;29;20068;-77
2021/12/10 13:06:45;;;;;;;7.97;4.60;;;4.60;99.90;;;;;;4921153;29;20056;-78
2021/12/10 13:09:17;;;;;;;8.50;4.38;;;4.50;99.90;;;;;;4922849;29;20056;-77
2021/12/10 13:11:56;;;;;;;7.55;4.47;;;4.50;99.90;;;;;;4908249;29;20405;-78